sensor_id;sensor_type;location;lat;lon;timestamp;temperature;humidity
7900;DHT22;3995;50.856;4.404;2023-08-20T00:02:11;24.90;61.20
7900;DHT22;3995;50.856;4.404;2023-08-20T00:04:42;25.00;61.20
7900;DHT22;3995;50.856;4.404;2023-08-20T00:07:10;25.00;61.20
7900;DHT22;3995;50.856;4.404;2023-08-20T00:09:38;24.90;61.30
7900;DHT22;3995;50.856;4.404;2023-08-20T00:12:05;24.90;61.40
7900;DHT22;3995;50.856;4.404;2023-08-20T00:14:52;24.90;61.40
7900;DHT22;3995;50.856;4.404;2023-08-20T00:17:21;24.90;61.30
7900;DHT22;3995;50.856;4.404;2023-08-20T00:19:52;24.80;61.50
7900;DHT22;3995;50.856;4.404;2023-08-20T00:22:21;24.80;61.50
7900;DHT22;3995;50.856;4.404;2023-08-20T00:24:50;24.80;61.50
7900;DHT22;3995;50.856;4.404;2023-08-20T00:27:17;24.80;61.60
7900;DHT22;3995;50.856;4.404;2023-08-20T00:29:44;24.80;61.80
7900;DHT22;3995;50.856;4.404;2023-08-20T00:32:12;24.80;61.80
7900;DHT22;3995;50.856;4.404;2023-08-20T00:34:39;24.70;61.70
7900;DHT22;3995;50.856;4.404;2023-08-20T00:37:09;24.70;61.70
7900;DHT22;3995;50.856;4.404;2023-08-20T00:39:36;24.70;61.80
7900;DHT22;3995;50.856;4.404;2023-08-20T00:42:04;24.70;61.90
7900;DHT22;3995;50.856;4.404;2023-08-20T00:44:31;24.70;61.90
7900;DHT22;3995;50.856;4.404;2023-08-20T00:46:59;24.70;62.00
7900;DHT22;3995;50.856;4.404;2023-08-20T00:49:29;24.70;62.00
7900;DHT22;3995;50.856;4.404;2023-08-20T00:51:56;24.70;62.10
7900;DHT22;3995;50.856;4.404;2023-08-20T00:54:26;24.70;62.00
7900;DHT22;3995;50.856;4.404;2023-08-20T00:56:55;24.70;62.00
7900;DHT22;3995;50.856;4.404;2023-08-20T00:59:23;24.70;62.20
7900;DHT22;3995;50.856;4.404;2023-08-20T01:01:50;24.70;62.00
7900;DHT22;3995;50.856;4.404;2023-08-20T01:04:18;24.70;62.00
7900;DHT22;3995;50.856;4.404;2023-08-20T01:06:53;24.70;61.90
7900;DHT22;3995;50.856;4.404;2023-08-20T01:09:28;24.70;62.00
7900;DHT22;3995;50.856;4.404;2023-08-20T01:11:59;24.70;62.20
7900;DHT22;3995;50.856;4.404;2023-08-20T01:14:27;24.70;62.40
7900;DHT22;3995;50.856;4.404;2023-08-20T01:16:54;24.70;62.50
7900;DHT22;3995;50.856;4.404;2023-08-20T01:19:22;24.70;62.30
7900;DHT22;3995;50.856;4.404;2023-08-20T01:22:01;24.70;62.30
7900;DHT22;3995;50.856;4.404;2023-08-20T01:24:46;24.70;62.20
7900;DHT22;3995;50.856;4.404;2023-08-20T01:27:28;24.70;62.30
7900;DHT22;3995;50.856;4.404;2023-08-20T01:29:59;24.70;62.40
7900;DHT22;3995;50.856;4.404;2023-08-20T01:32:27;24.70;62.60
7900;DHT22;3995;50.856;4.404;2023-08-20T01:34:54;24.70;62.60
7900;DHT22;3995;50.856;4.404;2023-08-20T01:37:22;24.70;62.50
7900;DHT22;3995;50.856;4.404;2023-08-20T01:39:50;24.70;62.50
7900;DHT22;3995;50.856;4.404;2023-08-20T01:42:18;24.70;62.60
7900;DHT22;3995;50.856;4.404;2023-08-20T01:44:45;24.70;62.70
7900;DHT22;3995;50.856;4.404;2023-08-20T01:47:14;24.70;62.70
7900;DHT22;3995;50.856;4.404;2023-08-20T01:49:41;24.70;62.60
7900;DHT22;3995;50.856;4.404;2023-08-20T01:52:08;24.70;62.70
7900;DHT22;3995;50.856;4.404;2023-08-20T01:54:35;24.70;62.70
7900;DHT22;3995;50.856;4.404;2023-08-20T01:57:03;24.70;62.60
7900;DHT22;3995;50.856;4.404;2023-08-20T01:59:30;24.70;62.60
7900;DHT22;3995;50.856;4.404;2023-08-20T02:01:57;24.70;62.60
7900;DHT22;3995;50.856;4.404;2023-08-20T02:04:26;24.70;62.50
7900;DHT22;3995;50.856;4.404;2023-08-20T02:06:53;24.70;62.60
7900;DHT22;3995;50.856;4.404;2023-08-20T02:09:21;24.70;62.60
7900;DHT22;3995;50.856;4.404;2023-08-20T02:11:48;24.70;62.60
7900;DHT22;3995;50.856;4.404;2023-08-20T02:14:15;24.70;62.60
7900;DHT22;3995;50.856;4.404;2023-08-20T02:16:42;24.70;62.60
7900;DHT22;3995;50.856;4.404;2023-08-20T02:19:10;24.70;62.60
7900;DHT22;3995;50.856;4.404;2023-08-20T02:21:38;24.60;62.40
7900;DHT22;3995;50.856;4.404;2023-08-20T02:24:06;24.70;62.40
7900;DHT22;3995;50.856;4.404;2023-08-20T02:26:34;24.60;62.10
7900;DHT22;3995;50.856;4.404;2023-08-20T02:29:01;24.60;61.90
7900;DHT22;3995;50.856;4.404;2023-08-20T02:31:29;24.60;61.80
7900;DHT22;3995;50.856;4.404;2023-08-20T02:33:56;24.60;61.60
7900;DHT22;3995;50.856;4.404;2023-08-20T02:36:23;24.60;61.60
7900;DHT22;3995;50.856;4.404;2023-08-20T02:38:52;24.50;61.60
7900;DHT22;3995;50.856;4.404;2023-08-20T02:41:20;24.50;61.60
7900;DHT22;3995;50.856;4.404;2023-08-20T02:43:48;24.50;61.60
7900;DHT22;3995;50.856;4.404;2023-08-20T02:46:15;24.50;61.60
7900;DHT22;3995;50.856;4.404;2023-08-20T02:48:42;24.50;61.50
7900;DHT22;3995;50.856;4.404;2023-08-20T02:51:10;24.50;61.50
7900;DHT22;3995;50.856;4.404;2023-08-20T02:53:38;24.50;61.40
7900;DHT22;3995;50.856;4.404;2023-08-20T02:56:07;24.50;61.40
7900;DHT22;3995;50.856;4.404;2023-08-20T02:58:34;24.50;61.30
7900;DHT22;3995;50.856;4.404;2023-08-20T03:01:02;24.40;61.30
7900;DHT22;3995;50.856;4.404;2023-08-20T03:03:29;24.40;61.30
7900;DHT22;3995;50.856;4.404;2023-08-20T03:05:57;24.40;61.30
7900;DHT22;3995;50.856;4.404;2023-08-20T03:08:24;24.40;61.30
7900;DHT22;3995;50.856;4.404;2023-08-20T03:10:52;24.30;61.20
7900;DHT22;3995;50.856;4.404;2023-08-20T03:13:21;24.30;61.20
7900;DHT22;3995;50.856;4.404;2023-08-20T03:15:48;24.40;61.30
7900;DHT22;3995;50.856;4.404;2023-08-20T03:18:15;24.30;61.20
7900;DHT22;3995;50.856;4.404;2023-08-20T03:20:43;24.30;61.10
7900;DHT22;3995;50.856;4.404;2023-08-20T03:23:10;24.30;61.10
7900;DHT22;3995;50.856;4.404;2023-08-20T03:25:38;24.30;61.10
7900;DHT22;3995;50.856;4.404;2023-08-20T03:28:06;24.30;61.10
7900;DHT22;3995;50.856;4.404;2023-08-20T03:30:36;24.30;61.10
7900;DHT22;3995;50.856;4.404;2023-08-20T03:33:04;24.30;61.00
7900;DHT22;3995;50.856;4.404;2023-08-20T03:35:31;24.20;61.20
7900;DHT22;3995;50.856;4.404;2023-08-20T03:37:59;24.20;61.20
7900;DHT22;3995;50.856;4.404;2023-08-20T03:40:28;24.30;61.40
7900;DHT22;3995;50.856;4.404;2023-08-20T03:42:55;24.20;61.50
7900;DHT22;3995;50.856;4.404;2023-08-20T03:45:23;24.20;61.70
7900;DHT22;3995;50.856;4.404;2023-08-20T03:47:52;24.20;61.90
7900;DHT22;3995;50.856;4.404;2023-08-20T03:50:19;24.20;62.10
7900;DHT22;3995;50.856;4.404;2023-08-20T03:52:46;24.20;62.30
7900;DHT22;3995;50.856;4.404;2023-08-20T03:55:14;24.20;62.50
7900;DHT22;3995;50.856;4.404;2023-08-20T03:57:41;24.10;62.60
7900;DHT22;3995;50.856;4.404;2023-08-20T04:00:09;24.20;62.90
7900;DHT22;3995;50.856;4.404;2023-08-20T04:02:37;24.10;62.90
7900;DHT22;3995;50.856;4.404;2023-08-20T04:05:07;24.10;63.00
7900;DHT22;3995;50.856;4.404;2023-08-20T04:07:34;24.10;63.00
7900;DHT22;3995;50.856;4.404;2023-08-20T04:10:02;24.10;63.10
7900;DHT22;3995;50.856;4.404;2023-08-20T04:12:29;24.10;63.10
7900;DHT22;3995;50.856;4.404;2023-08-20T04:14:56;24.10;63.10
7900;DHT22;3995;50.856;4.404;2023-08-20T04:17:24;24.10;63.10
7900;DHT22;3995;50.856;4.404;2023-08-20T04:19:51;24.10;63.30
7900;DHT22;3995;50.856;4.404;2023-08-20T04:22:20;24.10;63.30
7900;DHT22;3995;50.856;4.404;2023-08-20T04:24:47;24.10;63.30
7900;DHT22;3995;50.856;4.404;2023-08-20T04:27:15;24.10;63.50
7900;DHT22;3995;50.856;4.404;2023-08-20T04:29:42;24.10;63.40
7900;DHT22;3995;50.856;4.404;2023-08-20T04:32:10;24.10;63.50
7900;DHT22;3995;50.856;4.404;2023-08-20T04:34:37;24.10;63.50
7900;DHT22;3995;50.856;4.404;2023-08-20T04:37:05;24.10;63.40
7900;DHT22;3995;50.856;4.404;2023-08-20T04:39:34;24.00;63.40
7900;DHT22;3995;50.856;4.404;2023-08-20T04:42:01;24.00;63.30
7900;DHT22;3995;50.856;4.404;2023-08-20T04:44:28;24.00;63.30
7900;DHT22;3995;50.856;4.404;2023-08-20T04:46:56;24.00;63.30
7900;DHT22;3995;50.856;4.404;2023-08-20T04:49:23;24.00;63.20
7900;DHT22;3995;50.856;4.404;2023-08-20T04:51:54;24.00;63.20
7900;DHT22;3995;50.856;4.404;2023-08-20T04:54:21;24.00;63.20
7900;DHT22;3995;50.856;4.404;2023-08-20T04:56:50;24.00;63.20
7900;DHT22;3995;50.856;4.404;2023-08-20T04:59:18;24.00;63.20
7900;DHT22;3995;50.856;4.404;2023-08-20T05:01:45;24.00;63.20
7900;DHT22;3995;50.856;4.404;2023-08-20T05:04:12;24.00;63.20
7900;DHT22;3995;50.856;4.404;2023-08-20T05:06:40;23.90;63.10
7900;DHT22;3995;50.856;4.404;2023-08-20T05:09:07;24.00;63.20
7900;DHT22;3995;50.856;4.404;2023-08-20T05:11:35;24.00;63.20
7900;DHT22;3995;50.856;4.404;2023-08-20T05:14:05;24.00;63.20
7900;DHT22;3995;50.856;4.404;2023-08-20T05:16:33;24.00;63.10
7900;DHT22;3995;50.856;4.404;2023-08-20T05:19:00;23.90;63.10
7900;DHT22;3995;50.856;4.404;2023-08-20T05:21:28;24.00;63.20
7900;DHT22;3995;50.856;4.404;2023-08-20T05:23:55;23.90;63.10
7900;DHT22;3995;50.856;4.404;2023-08-20T05:26:23;23.90;63.30
7900;DHT22;3995;50.856;4.404;2023-08-20T05:28:50;23.90;63.30
7900;DHT22;3995;50.856;4.404;2023-08-20T05:31:19;23.90;63.90
7900;DHT22;3995;50.856;4.404;2023-08-20T05:33:46;23.90;63.30
7900;DHT22;3995;50.856;4.404;2023-08-20T05:36:14;23.90;63.40
7900;DHT22;3995;50.856;4.404;2023-08-20T05:38:41;23.90;63.40
7900;DHT22;3995;50.856;4.404;2023-08-20T05:41:09;23.90;63.50
7900;DHT22;3995;50.856;4.404;2023-08-20T05:43:36;23.90;63.60
7900;DHT22;3995;50.856;4.404;2023-08-20T05:46:03;23.90;63.70
7900;DHT22;3995;50.856;4.404;2023-08-20T05:48:33;23.90;63.80
7900;DHT22;3995;50.856;4.404;2023-08-20T05:51:00;23.90;63.90
7900;DHT22;3995;50.856;4.404;2023-08-20T05:53:28;23.90;64.00
7900;DHT22;3995;50.856;4.404;2023-08-20T05:55:55;23.90;64.10
7900;DHT22;3995;50.856;4.404;2023-08-20T05:58:23;23.90;64.10
7900;DHT22;3995;50.856;4.404;2023-08-20T06:00:50;23.90;64.20
7900;DHT22;3995;50.856;4.404;2023-08-20T06:03:17;23.90;64.30
7900;DHT22;3995;50.856;4.404;2023-08-20T06:05:46;23.90;64.40
7900;DHT22;3995;50.856;4.404;2023-08-20T06:08:13;24.00;64.50
7900;DHT22;3995;50.856;4.404;2023-08-20T06:10:41;24.00;64.50
7900;DHT22;3995;50.856;4.404;2023-08-20T06:13:08;24.00;64.60
7900;DHT22;3995;50.856;4.404;2023-08-20T06:15:35;24.00;64.70
7900;DHT22;3995;50.856;4.404;2023-08-20T06:18:03;24.00;64.90
7900;DHT22;3995;50.856;4.404;2023-08-20T06:20:30;24.00;64.80
7900;DHT22;3995;50.856;4.404;2023-08-20T06:22:59;24.00;64.80
7900;DHT22;3995;50.856;4.404;2023-08-20T06:25:26;24.10;64.80
7900;DHT22;3995;50.856;4.404;2023-08-20T06:27:53;24.10;64.80
7900;DHT22;3995;50.856;4.404;2023-08-20T06:30:21;24.10;64.70
7900;DHT22;3995;50.856;4.404;2023-08-20T06:32:48;24.10;64.70
7900;DHT22;3995;50.856;4.404;2023-08-20T06:35:16;24.10;64.30
7900;DHT22;3995;50.856;4.404;2023-08-20T06:37:43;24.10;63.70
7900;DHT22;3995;50.856;4.404;2023-08-20T06:40:13;24.10;63.30
7900;DHT22;3995;50.856;4.404;2023-08-20T06:42:40;24.10;63.10
7900;DHT22;3995;50.856;4.404;2023-08-20T06:45:08;24.10;62.80
7900;DHT22;3995;50.856;4.404;2023-08-20T06:47:36;24.10;62.50
7900;DHT22;3995;50.856;4.404;2023-08-20T06:50:04;24.10;62.30
7900;DHT22;3995;50.856;4.404;2023-08-20T06:52:32;24.10;62.30
7900;DHT22;3995;50.856;4.404;2023-08-20T06:54:59;24.10;62.30
7900;DHT22;3995;50.856;4.404;2023-08-20T06:57:28;24.10;62.10
7900;DHT22;3995;50.856;4.404;2023-08-20T06:59:55;24.20;62.00
7900;DHT22;3995;50.856;4.404;2023-08-20T07:02:23;24.20;61.90
7900;DHT22;3995;50.856;4.404;2023-08-20T07:04:50;24.20;61.80
7900;DHT22;3995;50.856;4.404;2023-08-20T07:07:17;24.30;61.60
7900;DHT22;3995;50.856;4.404;2023-08-20T07:09:45;24.30;61.10
7900;DHT22;3995;50.856;4.404;2023-08-20T07:12:13;24.30;60.60
7900;DHT22;3995;50.856;4.404;2023-08-20T07:14:41;24.30;60.40
7900;DHT22;3995;50.856;4.404;2023-08-20T07:17:09;24.30;59.80
7900;DHT22;3995;50.856;4.404;2023-08-20T07:19:37;24.30;59.30
7900;DHT22;3995;50.856;4.404;2023-08-20T07:22:04;24.30;58.90
7900;DHT22;3995;50.856;4.404;2023-08-20T07:24:32;24.30;58.50
7900;DHT22;3995;50.856;4.404;2023-08-20T07:27:01;24.40;58.30
7900;DHT22;3995;50.856;4.404;2023-08-20T07:29:29;24.30;58.30
7900;DHT22;3995;50.856;4.404;2023-08-20T07:31:58;24.40;58.30
7900;DHT22;3995;50.856;4.404;2023-08-20T07:34:29;24.40;58.20
7900;DHT22;3995;50.856;4.404;2023-08-20T07:36:56;24.40;58.10
7900;DHT22;3995;50.856;4.404;2023-08-20T07:39:23;24.50;57.90
7900;DHT22;3995;50.856;4.404;2023-08-20T07:41:51;24.50;58.00
7900;DHT22;3995;50.856;4.404;2023-08-20T07:44:18;24.50;57.40
7900;DHT22;3995;50.856;4.404;2023-08-20T07:46:45;24.50;57.10
7900;DHT22;3995;50.856;4.404;2023-08-20T07:49:15;24.50;56.90
7900;DHT22;3995;50.856;4.404;2023-08-20T07:51:42;24.50;56.50
7900;DHT22;3995;50.856;4.404;2023-08-20T07:54:10;24.50;56.90
7900;DHT22;3995;50.856;4.404;2023-08-20T07:56:37;24.50;57.00
7900;DHT22;3995;50.856;4.404;2023-08-20T07:59:05;24.50;56.70
7900;DHT22;3995;50.856;4.404;2023-08-20T08:01:32;24.50;56.90
7900;DHT22;3995;50.856;4.404;2023-08-20T08:03:59;24.50;56.60
7900;DHT22;3995;50.856;4.404;2023-08-20T08:06:29;24.50;56.50
7900;DHT22;3995;50.856;4.404;2023-08-20T08:08:56;24.60;56.40
7900;DHT22;3995;50.856;4.404;2023-08-20T08:11:23;24.60;56.60
7900;DHT22;3995;50.856;4.404;2023-08-20T08:13:51;24.60;56.70
7900;DHT22;3995;50.856;4.404;2023-08-20T08:16:19;24.60;56.70
7900;DHT22;3995;50.856;4.404;2023-08-20T08:18:46;24.60;56.70
7900;DHT22;3995;50.856;4.404;2023-08-20T08:21:13;24.60;56.60
7900;DHT22;3995;50.856;4.404;2023-08-20T08:23:42;24.60;56.50
7900;DHT22;3995;50.856;4.404;2023-08-20T08:26:10;24.60;56.10
7900;DHT22;3995;50.856;4.404;2023-08-20T08:28:37;24.60;56.10
7900;DHT22;3995;50.856;4.404;2023-08-20T08:31:04;24.60;56.00
7900;DHT22;3995;50.856;4.404;2023-08-20T08:33:32;24.60;55.80
7900;DHT22;3995;50.856;4.404;2023-08-20T08:35:59;24.60;55.50
7900;DHT22;3995;50.856;4.404;2023-08-20T08:38:26;24.70;55.60
7900;DHT22;3995;50.856;4.404;2023-08-20T08:40:55;24.60;55.60
7900;DHT22;3995;50.856;4.404;2023-08-20T08:43:23;24.70;55.60
7900;DHT22;3995;50.856;4.404;2023-08-20T08:45:51;24.70;55.80
7900;DHT22;3995;50.856;4.404;2023-08-20T08:48:20;24.70;56.10
7900;DHT22;3995;50.856;4.404;2023-08-20T08:50:49;24.70;56.30
7900;DHT22;3995;50.856;4.404;2023-08-20T08:53:18;24.70;56.20
7900;DHT22;3995;50.856;4.404;2023-08-20T08:55:45;24.70;56.10
7900;DHT22;3995;50.856;4.404;2023-08-20T08:58:15;24.70;54.50
7900;DHT22;3995;50.856;4.404;2023-08-20T09:00:42;24.70;54.40
7900;DHT22;3995;50.856;4.404;2023-08-20T09:03:10;24.70;54.70
7900;DHT22;3995;50.856;4.404;2023-08-20T09:05:46;24.70;54.80
7900;DHT22;3995;50.856;4.404;2023-08-20T09:08:19;24.80;54.60
7900;DHT22;3995;50.856;4.404;2023-08-20T09:10:50;24.70;54.60
7900;DHT22;3995;50.856;4.404;2023-08-20T09:13:22;25.10;53.60
7900;DHT22;3995;50.856;4.404;2023-08-20T09:15:51;25.00;53.90
7900;DHT22;3995;50.856;4.404;2023-08-20T09:18:18;24.90;54.20
7900;DHT22;3995;50.856;4.404;2023-08-20T09:20:48;24.90;54.00
7900;DHT22;3995;50.856;4.404;2023-08-20T09:23:16;24.90;53.90
7900;DHT22;3995;50.856;4.404;2023-08-20T09:25:44;24.80;53.60
7900;DHT22;3995;50.856;4.404;2023-08-20T09:28:12;24.80;53.80
7900;DHT22;3995;50.856;4.404;2023-08-20T09:30:55;24.80;54.00
7900;DHT22;3995;50.856;4.404;2023-08-20T09:33:22;24.90;53.40
7900;DHT22;3995;50.856;4.404;2023-08-20T09:35:50;24.80;53.80
7900;DHT22;3995;50.856;4.404;2023-08-20T09:38:20;24.80;53.00
7900;DHT22;3995;50.856;4.404;2023-08-20T09:40:49;24.80;52.70
7900;DHT22;3995;50.856;4.404;2023-08-20T09:43:18;24.90;53.10
7900;DHT22;3995;50.856;4.404;2023-08-20T09:45:47;24.90;53.20
7900;DHT22;3995;50.856;4.404;2023-08-20T09:48:18;24.90;53.50
7900;DHT22;3995;50.856;4.404;2023-08-20T09:50:51;24.90;53.30
7900;DHT22;3995;50.856;4.404;2023-08-20T09:53:24;24.90;53.30
7900;DHT22;3995;50.856;4.404;2023-08-20T09:55:56;24.90;53.40
7900;DHT22;3995;50.856;4.404;2023-08-20T09:58:30;25.00;53.70
7900;DHT22;3995;50.856;4.404;2023-08-20T10:01:00;24.90;53.70
7900;DHT22;3995;50.856;4.404;2023-08-20T10:03:28;25.00;52.50
7900;DHT22;3995;50.856;4.404;2023-08-20T10:05:57;25.00;53.30
7900;DHT22;3995;50.856;4.404;2023-08-20T10:08:25;25.00;53.70
7900;DHT22;3995;50.856;4.404;2023-08-20T10:10:54;25.00;54.00
7900;DHT22;3995;50.856;4.404;2023-08-20T10:13:22;25.00;54.20
7900;DHT22;3995;50.856;4.404;2023-08-20T10:15:50;25.10;54.10
7900;DHT22;3995;50.856;4.404;2023-08-20T10:18:21;25.10;53.50
7900;DHT22;3995;50.856;4.404;2023-08-20T10:20:50;25.10;53.60
7900;DHT22;3995;50.856;4.404;2023-08-20T10:23:21;25.10;53.70
7900;DHT22;3995;50.856;4.404;2023-08-20T10:25:48;25.10;53.90
7900;DHT22;3995;50.856;4.404;2023-08-20T10:28:20;25.10;54.50
7900;DHT22;3995;50.856;4.404;2023-08-20T10:31:04;25.20;53.80
7900;DHT22;3995;50.856;4.404;2023-08-20T10:33:35;25.20;53.80
7900;DHT22;3995;50.856;4.404;2023-08-20T10:36:13;25.20;53.60
7900;DHT22;3995;50.856;4.404;2023-08-20T10:38:41;25.30;53.90
7900;DHT22;3995;50.856;4.404;2023-08-20T10:41:11;25.30;53.70
7900;DHT22;3995;50.856;4.404;2023-08-20T10:43:45;25.30;53.50
7900;DHT22;3995;50.856;4.404;2023-08-20T10:46:17;25.40;53.40
7900;DHT22;3995;50.856;4.404;2023-08-20T10:48:49;25.40;53.40
7900;DHT22;3995;50.856;4.404;2023-08-20T10:51:18;25.40;53.00
7900;DHT22;3995;50.856;4.404;2023-08-20T10:54:02;25.50;53.00
7900;DHT22;3995;50.856;4.404;2023-08-20T10:56:39;25.60;52.50
7900;DHT22;3995;50.856;4.404;2023-08-20T10:59:08;25.60;52.50
7900;DHT22;3995;50.856;4.404;2023-08-20T11:01:38;25.70;52.90
7900;DHT22;3995;50.856;4.404;2023-08-20T11:04:09;25.70;52.70
7900;DHT22;3995;50.856;4.404;2023-08-20T11:06:37;25.80;52.60
7900;DHT22;3995;50.856;4.404;2023-08-20T11:09:04;25.80;52.10
7900;DHT22;3995;50.856;4.404;2023-08-20T11:11:32;25.90;52.20
7900;DHT22;3995;50.856;4.404;2023-08-20T11:14:05;26.00;52.60
7900;DHT22;3995;50.856;4.404;2023-08-20T11:16:33;26.10;52.60
7900;DHT22;3995;50.856;4.404;2023-08-20T11:19:01;26.20;52.90
7900;DHT22;3995;50.856;4.404;2023-08-20T11:21:33;26.40;52.60
7900;DHT22;3995;50.856;4.404;2023-08-20T11:24:01;26.50;52.30
7900;DHT22;3995;50.856;4.404;2023-08-20T11:26:29;26.60;52.20
7900;DHT22;3995;50.856;4.404;2023-08-20T11:28:57;26.80;52.10
7900;DHT22;3995;50.856;4.404;2023-08-20T11:31:25;27.10;51.90
7900;DHT22;3995;50.856;4.404;2023-08-20T11:33:53;27.60;51.50
7900;DHT22;3995;50.856;4.404;2023-08-20T11:36:20;28.10;50.80
7900;DHT22;3995;50.856;4.404;2023-08-20T11:38:52;28.60;50.20
7900;DHT22;3995;50.856;4.404;2023-08-20T11:41:19;29.10;49.50
7900;DHT22;3995;50.856;4.404;2023-08-20T11:43:47;29.50;49.00
7900;DHT22;3995;50.856;4.404;2023-08-20T11:46:16;29.80;48.40
7900;DHT22;3995;50.856;4.404;2023-08-20T11:48:58;30.00;48.00
7900;DHT22;3995;50.856;4.404;2023-08-20T11:51:25;30.20;48.30
7900;DHT22;3995;50.856;4.404;2023-08-20T11:53:55;30.30;48.00
7900;DHT22;3995;50.856;4.404;2023-08-20T11:56:23;30.40;47.80
7900;DHT22;3995;50.856;4.404;2023-08-20T11:58:51;30.50;47.60
7900;DHT22;3995;50.856;4.404;2023-08-20T12:01:18;30.60;47.70
7900;DHT22;3995;50.856;4.404;2023-08-20T12:03:46;30.70;47.50
7900;DHT22;3995;50.856;4.404;2023-08-20T12:06:18;30.80;47.50
7900;DHT22;3995;50.856;4.404;2023-08-20T12:08:46;30.90;47.40
7900;DHT22;3995;50.856;4.404;2023-08-20T12:11:15;30.90;47.00
7900;DHT22;3995;50.856;4.404;2023-08-20T12:13:43;31.10;47.00
7900;DHT22;3995;50.856;4.404;2023-08-20T12:16:10;31.10;47.10
7900;DHT22;3995;50.856;4.404;2023-08-20T12:18:37;31.20;47.20
7900;DHT22;3995;50.856;4.404;2023-08-20T12:21:05;31.20;47.00
7900;DHT22;3995;50.856;4.404;2023-08-20T12:23:32;31.30;46.70
7900;DHT22;3995;50.856;4.404;2023-08-20T12:25:59;31.40;47.00
7900;DHT22;3995;50.856;4.404;2023-08-20T12:28:28;31.40;46.90
7900;DHT22;3995;50.856;4.404;2023-08-20T12:30:56;31.50;46.50
7900;DHT22;3995;50.856;4.404;2023-08-20T12:33:23;31.40;46.40
7900;DHT22;3995;50.856;4.404;2023-08-20T12:35:54;31.40;46.30
7900;DHT22;3995;50.856;4.404;2023-08-20T12:38:21;31.30;46.50
7900;DHT22;3995;50.856;4.404;2023-08-20T12:40:49;31.10;46.70
7900;DHT22;3995;50.856;4.404;2023-08-20T12:43:16;31.00;46.90
7900;DHT22;3995;50.856;4.404;2023-08-20T12:45:45;30.90;46.90
7900;DHT22;3995;50.856;4.404;2023-08-20T12:48:12;30.60;46.50
7900;DHT22;3995;50.856;4.404;2023-08-20T12:50:39;30.60;47.10
7900;DHT22;3995;50.856;4.404;2023-08-20T12:53:07;30.50;47.30
7900;DHT22;3995;50.856;4.404;2023-08-20T12:55:35;30.40;47.70
7900;DHT22;3995;50.856;4.404;2023-08-20T12:58:02;30.20;47.80
7900;DHT22;3995;50.856;4.404;2023-08-20T13:00:29;30.10;48.10
7900;DHT22;3995;50.856;4.404;2023-08-20T13:03:00;30.00;48.40
7900;DHT22;3995;50.856;4.404;2023-08-20T13:05:28;29.90;48.70
7900;DHT22;3995;50.856;4.404;2023-08-20T13:07:56;29.70;48.80
7900;DHT22;3995;50.856;4.404;2023-08-20T13:10:24;29.60;49.00
7900;DHT22;3995;50.856;4.404;2023-08-20T13:12:52;29.50;49.40
7900;DHT22;3995;50.856;4.404;2023-08-20T13:15:21;29.40;49.70
7900;DHT22;3995;50.856;4.404;2023-08-20T13:17:50;29.30;49.40
7900;DHT22;3995;50.856;4.404;2023-08-20T13:20:19;29.30;49.50
7900;DHT22;3995;50.856;4.404;2023-08-20T13:22:49;29.20;49.80
7900;DHT22;3995;50.856;4.404;2023-08-20T13:25:16;29.10;49.80
7900;DHT22;3995;50.856;4.404;2023-08-20T13:27:44;29.00;50.20
7900;DHT22;3995;50.856;4.404;2023-08-20T13:30:12;28.90;50.20
7900;DHT22;3995;50.856;4.404;2023-08-20T13:32:39;28.90;50.60
7900;DHT22;3995;50.856;4.404;2023-08-20T13:35:07;28.90;50.40
7900;DHT22;3995;50.856;4.404;2023-08-20T13:37:36;28.80;50.50
7900;DHT22;3995;50.856;4.404;2023-08-20T13:40:04;28.70;50.80
7900;DHT22;3995;50.856;4.404;2023-08-20T13:42:33;28.70;50.80
7900;DHT22;3995;50.856;4.404;2023-08-20T13:45:00;28.60;50.70
7900;DHT22;3995;50.856;4.404;2023-08-20T13:47:27;28.60;51.00
7900;DHT22;3995;50.856;4.404;2023-08-20T13:49:54;28.50;51.10
7900;DHT22;3995;50.856;4.404;2023-08-20T13:52:22;28.50;51.20
7900;DHT22;3995;50.856;4.404;2023-08-20T13:54:51;28.50;51.10
7900;DHT22;3995;50.856;4.404;2023-08-20T13:57:18;28.50;51.00
7900;DHT22;3995;50.856;4.404;2023-08-20T13:59:46;28.40;51.00
7900;DHT22;3995;50.856;4.404;2023-08-20T14:02:13;28.40;51.20
7900;DHT22;3995;50.856;4.404;2023-08-20T14:04:40;28.40;50.90
7900;DHT22;3995;50.856;4.404;2023-08-20T14:07:08;28.40;51.20
7900;DHT22;3995;50.856;4.404;2023-08-20T14:09:35;28.40;50.90
7900;DHT22;3995;50.856;4.404;2023-08-20T14:12:05;28.30;51.50
7900;DHT22;3995;50.856;4.404;2023-08-20T14:14:32;28.40;50.90
7900;DHT22;3995;50.856;4.404;2023-08-20T14:16:59;28.30;50.90
7900;DHT22;3995;50.856;4.404;2023-08-20T14:19:27;28.30;51.20
7900;DHT22;3995;50.856;4.404;2023-08-20T14:21:54;28.30;51.10
7900;DHT22;3995;50.856;4.404;2023-08-20T14:24:22;28.30;51.20
7900;DHT22;3995;50.856;4.404;2023-08-20T14:26:49;28.30;51.60
7900;DHT22;3995;50.856;4.404;2023-08-20T14:29:18;28.20;51.70
7900;DHT22;3995;50.856;4.404;2023-08-20T14:31:46;28.20;51.80
7900;DHT22;3995;50.856;4.404;2023-08-20T14:34:13;28.20;51.70
7900;DHT22;3995;50.856;4.404;2023-08-20T14:36:41;28.20;51.80
7900;DHT22;3995;50.856;4.404;2023-08-20T14:39:08;28.20;51.80
7900;DHT22;3995;50.856;4.404;2023-08-20T14:41:35;28.20;52.60
7900;DHT22;3995;50.856;4.404;2023-08-20T14:44:03;28.20;52.10
7900;DHT22;3995;50.856;4.404;2023-08-20T14:46:33;28.20;51.80
7900;DHT22;3995;50.856;4.404;2023-08-20T14:49:00;28.10;51.60
7900;DHT22;3995;50.856;4.404;2023-08-20T14:51:27;28.10;51.80
7900;DHT22;3995;50.856;4.404;2023-08-20T14:53:54;28.10;51.80
7900;DHT22;3995;50.856;4.404;2023-08-20T14:56:21;28.10;51.90
7900;DHT22;3995;50.856;4.404;2023-08-20T14:58:49;28.10;52.20
7900;DHT22;3995;50.856;4.404;2023-08-20T15:01:16;28.10;52.30
7900;DHT22;3995;50.856;4.404;2023-08-20T15:03:46;28.10;52.40
7900;DHT22;3995;50.856;4.404;2023-08-20T15:06:13;28.10;52.50
7900;DHT22;3995;50.856;4.404;2023-08-20T15:08:41;28.10;52.40
7900;DHT22;3995;50.856;4.404;2023-08-20T15:11:08;28.10;52.60
7900;DHT22;3995;50.856;4.404;2023-08-20T15:13:36;28.10;52.60
7900;DHT22;3995;50.856;4.404;2023-08-20T15:16:03;28.10;52.60
7900;DHT22;3995;50.856;4.404;2023-08-20T15:18:31;28.10;52.70
7900;DHT22;3995;50.856;4.404;2023-08-20T15:21:00;28.00;52.70
7900;DHT22;3995;50.856;4.404;2023-08-20T15:23:28;28.00;52.70
7900;DHT22;3995;50.856;4.404;2023-08-20T15:25:56;28.00;52.80
7900;DHT22;3995;50.856;4.404;2023-08-20T15:28:24;28.00;52.80
7900;DHT22;3995;50.856;4.404;2023-08-20T15:30:55;28.00;52.70
7900;DHT22;3995;50.856;4.404;2023-08-20T15:33:23;28.00;52.50
7900;DHT22;3995;50.856;4.404;2023-08-20T15:35:51;28.00;52.40
7900;DHT22;3995;50.856;4.404;2023-08-20T15:38:19;28.00;52.20
7900;DHT22;3995;50.856;4.404;2023-08-20T15:40:47;28.00;52.20
7900;DHT22;3995;50.856;4.404;2023-08-20T15:43:14;28.00;52.10
7900;DHT22;3995;50.856;4.404;2023-08-20T15:45:41;28.00;52.10
7900;DHT22;3995;50.856;4.404;2023-08-20T15:48:09;28.00;52.10
7900;DHT22;3995;50.856;4.404;2023-08-20T15:50:36;28.00;52.40
7900;DHT22;3995;50.856;4.404;2023-08-20T15:53:03;28.00;52.40
7900;DHT22;3995;50.856;4.404;2023-08-20T15:55:33;28.00;52.50
7900;DHT22;3995;50.856;4.404;2023-08-20T15:58:00;28.00;52.10
7900;DHT22;3995;50.856;4.404;2023-08-20T16:00:29;28.00;52.20
7900;DHT22;3995;50.856;4.404;2023-08-20T16:02:57;28.00;52.40
7900;DHT22;3995;50.856;4.404;2023-08-20T16:05:26;28.00;52.60
7900;DHT22;3995;50.856;4.404;2023-08-20T16:07:53;28.00;52.60
7900;DHT22;3995;50.856;4.404;2023-08-20T16:10:21;28.00;52.70